Tiempo atmosférico en la estación meteorológica de Adeje, Santa Cruz de Tenerife (130 m.)

Fecha
DESCASC
Temp. máxima en grados centígrados (hora)
DESCASC
Temp. mínima en grados centígrados (hora)
DESCASC
Temp. media en grados centígrados
DESCASC
Racha de viento máxima en m/sg (hora)
DESCASC
Velocidad máxima media en intervalos de 10 minutos(hora)
DESCASC
Precipitaciones diarias en mm
DESCASC
Precipitaciones de 00:00 a 06:00 en mm
DESCASC
Precipitaciones de 06:00 a 12:00 en mm
DESCASC
Precipitaciones de 12:00 a 18:00 en mm
DESCASC
Precipitaciones de 18:00 a 24:00 en mm
DESCASC
17-08-2017 30.1 (14:40) 19.7 (06:30) 24.9 5.56 (15:20) 3.33 (16:00) 0 0 0 0 0
16-08-2017 28.5 (17:40) 19.6 (06:50) 24.1 6.67 (18:20) 3.89 (12:00) 0 0 0 0 0
15-08-2017 27.6 (15:00) 18.5 (00:00) 23.1 5.56 (16:40) 3.33 (17:20) 0 0 0 0 0
14-08-2017 28 (16:40) 20.4 (07:50) 24.2 6.39 (17:00) 3.33 (15:20) 0 0 0 0 0
13-08-2017 28.7 (17:40) 19.3 (00:00) 24 5.83 (12:30) 3.33 (11:50) 0 0 0 0 0
12-08-2017 28.3 (13:10) 18.6 (00:00) 23.4 7.5 (15:00) 3.61 (15:40) 0 0 0 0 0
11-08-2017 29 (16:10) 21.5 (00:00) 25.3 6.11 (17:30) 3.33 (17:20) 0 0 0 0 0
10-08-2017 30 (16:20) 22 (00:00) 26 7.22 (14:50) 3.61 (14:50) 0 0 0 0 0
09-08-2017 30.7 (15:10) 21.6 (00:00) 26.2 8.89 (16:00) 4.17 (15:20) 0 0 0 0 0
08-08-2017 29.2 (15:40) 22.5 (00:00) 25.9 7.5 (10:10) 4.17 (10:10) 0 0 0 0 0
07-08-2017 30.5 (15:10) 21.8 (00:00) 26.1 7.78 (16:20) 4.17 (16:40) 0 0 0 0 0
06-08-2017 28.6 (18:10) 22.6 (00:00) 25.6 7.5 (18:50) 3.33 (18:20) 0 0 0 0 0
05-08-2017 28 (14:30) 20.6 (00:00) 24.3 5.56 (15:00) 2.78 (15:00) 0 0 0 0 0
04-08-2017 28.5 (17:30) 20.2 (00:00) 24.4 8.89 (17:40) 4.17 (16:40) 0 0 0 0 0
03-08-2017 27.3 (16:30) 21.2 (00:00) 24.3 8.61 (15:00) 3.61 (15:10) 0 0 0 0 0
02-08-2017 27.5 (16:50) 20.7 (00:00) 24.1 6.11 (17:30) 3.33 (14:40) 0 0 0 0 0
01-08-2017 27.5 (15:00) 20.3 (00:00) 23.9 5.56 (12:50) 3.33 (18:30) 0 0 0 0 0
31-07-2017 27.1 (16:10) 19.9 (00:00) 23.5 7.22 (17:10) 3.61 (11:20) 0 0 0 0 0
30-07-2017 28.1 (16:10) 20.1 (00:00) 24.1 7.22 (13:40) 3.89 (18:10) 0 0 0 0 0
29-07-2017 31.7 (17:10) 20.2 (00:00) 26 6.67 (19:50) 3.33 (19:50) 0 0 0 0 0
28-07-2017 32.8 (16:00) 20.7 (00:00) 26.8 6.11 (23:00) 3.61 (07:00) 0 0 0 0 0
27-07-2017 30.1 (14:30) 19.1 (00:00) 24.6 7.78 (15:00) 4.72 (15:00) 0 0 0 0 0
26-07-2017 29.9 (17:20) 20.6 (00:00) 25.3 7.5 (15:50) 3.89 (17:30) 0 0 0 0 0
25-07-2017 28.1 (15:00) 20.8 (00:00) 24.4 6.94 (15:50) 3.89 (15:20) 0 0 0 0 0
24-07-2017 28 (17:10) 19.4 (00:00) 23.7 7.5 (15:00) 4.72 (15:00) 0 0 0 0 0
23-07-2017 27.1 (16:10) 18.8 (00:00) 22.9 6.39 (15:30) 3.61 (18:00) 0 0 0 0 0
22-07-2017 26.3 (16:10) 21.4 (00:00) 23.8 5.56 (14:30) 3.33 (14:30) 0 0 0 0 0

Gráficas

Temp. máximas Temp. mínimas Temp. medias Precipitaciones Rachas de viento máximas Velocidades máximas media en intervalos de 10 minutos

Datos horarios

Fecha y hora oficial Temperatura (ºC) Velocidad del viento (km/h) Dirección del viento Racha (km/h) Dirección de racha Precipitación (mm) Presión (hPa) Tendencia (hPa) Humedad (%)
2017-08-20 23:00:00 22.8 3 Nordeste 13 Oeste 0 -- -- 80
2017-08-20 22:00:00 22.8 2 Sudeste 12 Oeste 0 -- -- 82
2017-08-20 21:00:00 23.5 7 Oeste 18 Noroeste 0 -- -- 79
2017-08-20 20:00:00 26.2 8 Oeste 18 Sudoeste 0 -- -- 68
2017-08-20 19:00:00 27.8 5 Sudoeste 14 Oeste 0 -- -- 59
2017-08-20 18:00:00 29 10 Oeste 21 Oeste 0 -- -- 55
2017-08-20 17:00:00 29.9 10 Oeste 21 Sudoeste 0 -- -- 53
2017-08-20 16:00:00 29.7 9 Oeste 22 Oeste 0 -- -- 53
2017-08-20 15:00:00 28.7 8 Oeste 20 Oeste 0 -- -- 58
2017-08-20 14:00:00 28.3 10 Oeste 20 Sudoeste 0 -- -- 56
2017-08-20 13:00:00 28.6 15 Sudoeste 29 Sudoeste 0 -- -- 56
2017-08-20 12:00:00 27.9 6 Oeste 13 Oeste 0 -- -- 61
2017-08-20 11:00:00 27.2 5 Oeste 14 Sudoeste 0 -- -- 63
2017-08-20 10:00:00 25.7 7 Noroeste 18 Noroeste 0 -- -- 56
2017-08-20 09:00:00 22.7 4 Nordeste 10 Sur 0 -- -- 78
2017-08-20 08:00:00 22 4 Sudeste 9 Sudeste 0 -- -- 81
2017-08-20 07:00:00 22.3 4 Nordeste 15 Sudoeste 0 -- -- 80
2017-08-20 06:00:00 22.9 5 Nordeste 10 Nordeste 0 -- -- 68
2017-08-20 05:00:00 22.1 4 Nordeste 14 Sudoeste 0 -- -- 82
2017-08-20 04:00:00 23 4 Este 10 Sudoeste 0 -- -- 67
2017-08-20 03:00:00 22 3 Nordeste 6 Sudeste 0 -- -- 81
2017-08-20 02:00:00 22.5 3 Sudeste 8 Este 0 -- -- 80
2017-08-20 01:00:00 22.6 3 Norte 10 Sur 0 -- -- 78
2017-08-20 00:00:00 22.9 3 Este 8 Este 0 -- -- 77
2017-08-19 23:00:00 23.2 2 Noroeste 14 Sur 0 -- -- 77
2017-08-19 22:00:00 24.4 3 Norte 9 Sur 0 -- -- 68
2017-08-19 21:00:00 24.5 0 Calma 13 Sudoeste 0 -- -- 70
2017-08-19 20:00:00 27.1 5 Oeste 22 Sudoeste 0 -- -- 60
2017-08-19 19:00:00 29.7 4 Oeste 15 Sudoeste 0 -- -- 52
2017-08-19 18:00:00 29.2 8 Sudoeste 22 Sudoeste 0 -- -- 56
2017-08-19 17:00:00 30.5 9 Sudoeste 18 Sudoeste 0 -- -- 49
2017-08-19 16:00:00 31 8 Oeste 19 Sudoeste 0 -- -- 46
2017-08-19 15:00:00 29.4 9 Oeste 21 Sudoeste 0 -- -- 53
2017-08-19 14:00:00 29 11 Sudoeste 22 Oeste 0 -- -- 52
2017-08-19 13:00:00 28.2 15 Sudoeste 32 Sudoeste 0 -- -- 57
2017-08-19 12:00:00 29.2 9 Sudoeste 17 Sudoeste 0 -- -- 47
2017-08-19 11:00:00 27.8 5 Sudoeste 10 Sudoeste 0 -- -- 48
2017-08-19 10:00:00 26.1 4 Sur 10 Sudoeste 0 -- -- 61
2017-08-19 09:00:00 23.7 5 Este 8 Este 0 -- -- 54
2017-08-19 08:00:00 21.9 0 Calma 8 Este 0 -- -- 60
2017-08-19 07:00:00 22.6 3 Este 8 Este 0 -- -- 59
2017-08-19 06:00:00 23.5 6 Este 9 Este 0 -- -- 59
2017-08-19 05:00:00 23.3 3 Nordeste 7 Este 0 -- -- 61
2017-08-19 04:00:00 23.6 5 Este 8 Este 0 -- -- 60
2017-08-19 03:00:00 23.8 5 Este 7 Nordeste 0 -- -- 62
2017-08-19 02:00:00 24.2 3 Este 7 Este 0 -- -- 61
2017-08-19 01:00:00 24.1 4 Este 6 Nordeste 0 -- -- 63
2017-08-19 00:00:00 24.2 0 Calma 6 Oeste 0 -- -- 62
2017-08-18 23:00:00 24 2 Noroeste 8 Sur 0 -- -- 68
2017-08-18 22:00:00 24.8 0 Calma 9 Sudoeste 0 -- -- 64
2017-08-18 21:00:00 26.1 3 Oeste 14 Sudoeste 0 -- -- 59
2017-08-18 20:00:00 28.4 6 Oeste 13 Sur 0 -- -- 54
2017-08-18 19:00:00 29.8 7 Oeste 17 Sudoeste 0 -- -- 51
2017-08-18 18:00:00 29.8 9 Sudoeste 22 Oeste 0 -- -- 52
2017-08-18 17:00:00 30 11 Oeste 19 Sudoeste 0 -- -- 53
2017-08-18 16:00:00 29.7 10 Sudoeste 19 Sudoeste 0 -- -- 56
2017-08-18 15:00:00 29 8 Oeste 17 Oeste 0 -- -- 57
2017-08-18 14:00:00 28.7 8 Oeste 20 Sudoeste 0 -- -- 60
2017-08-18 13:00:00 28.3 10 Sudoeste 22 Sudoeste 0 -- -- 57
2017-08-18 12:00:00 28 10 Sudoeste 17 Sur 0 -- -- 55
2017-08-18 11:00:00 27.9 7 Oeste 14 Sudoeste 0 -- -- 54
2017-08-18 10:00:00 26.5 4 Oeste 10 Sudoeste 0 -- -- 58
2017-08-18 09:00:00 23.2 4 Nordeste 6 Este 0 -- -- 67
2017-08-18 08:00:00 23 3 Este 6 Nordeste 0 -- -- 66
2017-08-18 07:00:00 22.6 3 Este 6 Este 0 -- -- 68
2017-08-18 06:00:00 22.4 2 Sudeste 8 Este 0 -- -- 69
2017-08-18 05:00:00 22.8 3 Este 6 Este 0 -- -- 67
2017-08-18 04:00:00 23.1 3 Este 5 Este 0 -- -- 65
2017-08-18 03:00:00 23 2 Sudeste 5 Sudeste 0 -- -- 69
2017-08-18 02:00:00 21.8 0 Calma 5 Sur 0 -- -- 68
2017-08-18 01:00:00 22 0 Calma 4 Noroeste 0 -- -- 71
2017-08-18 00:00:00 22.7 0 Calma 4 Sudeste 0 -- -- 78
2017-08-17 23:00:00 23 0 Calma 4 Sudoeste 0 -- -- 79
2017-08-17 22:00:00 23.9 2 Noroeste 8 Sudoeste 0 -- -- 73
2017-08-17 21:00:00 24.9 3 Sudoeste 9 Sudoeste 0 -- -- 72
2017-08-17 20:00:00 26.5 5 Sudoeste 13 Oeste 0 -- -- 69
2017-08-17 19:00:00 28.2 4 Sudoeste 14 Oeste 0 -- -- 61
2017-08-17 18:00:00 28.7 9 Oeste 18 Oeste 0 -- -- 63
2017-08-17 17:00:00 29.7 8 Oeste 20 Oeste 0 -- -- 53
2017-08-17 16:00:00 29.8 12 Oeste 20 Sudoeste 0 -- -- 54
2017-08-17 15:00:00 29.8 10 Oeste 19 Oeste 0 -- -- 53
2017-08-17 14:00:00 29.5 10 Oeste 16 Sudoeste 0 -- -- 49
2017-08-17 13:00:00 29 8 Oeste 14 Oeste 0 -- -- 55
2017-08-17 12:00:00 28.3 9 Oeste 15 Sudoeste 0 -- -- 54
2017-08-17 11:00:00 26.6 3 Sur 10 Oeste 0 -- -- 67
2017-08-17 10:00:00 25 6 Oeste 10 Oeste 0 -- -- 73
2017-08-17 09:00:00 20.6 0 Calma 6 Nordeste 0 -- -- 84
2017-08-17 08:00:00 20.5 3 Sur 9 Este 0 -- -- 86
2017-08-17 07:00:00 20.2 0 Calma 9 Sudoeste 0 -- -- 92
2017-08-17 06:00:00 19.8 3 Nordeste 6 Este 0 -- -- 87
2017-08-17 05:00:00 20.2 0 Calma 6 Sudeste 0 -- -- 87
2017-08-17 04:00:00 20.6 0 Calma 5 Nordeste 0 -- -- 84
2017-08-17 03:00:00 21.7 4 Este 5 Nordeste 0 -- -- 85
2017-08-17 02:00:00 21.9 0 Calma 10 Oeste 0 -- -- 83
2017-08-17 01:00:00 22.2 4 Noroeste 10 Noroeste 0 -- -- 83
2017-08-17 00:00:00 22.7 2 Oeste 12 Sudoeste 0 -- -- 81
2017-08-16 23:00:00 22.8 5 Oeste 22 Sudoeste 0 -- -- 82
2017-08-16 22:00:00 22.9 5 Oeste 9 Oeste 0 -- -- 79
2017-08-16 21:00:00 23.8 2 Sudoeste 11 Sudoeste 0 -- -- 74
2017-08-16 20:00:00 25.4 6 Oeste 18 Sur 0 -- -- 70
2017-08-16 19:00:00 26.5 9 Oeste 24 Sudoeste 0 -- -- 67
2017-08-16 18:00:00 28.1 10 Oeste 21 Oeste 0 -- -- 58
2017-08-16 17:00:00 28.1 10 Sudoeste 20 Sudoeste 0 -- -- 61
2017-08-16 16:00:00 28 8 Oeste 23 Oeste 0 -- -- 61
2017-08-16 15:00:00 27.2 10 Sudoeste 19 Sudoeste 0 -- -- 63
2017-08-16 14:00:00 27.4 12 Sudoeste 21 Sudoeste 0 -- -- 60
2017-08-16 13:00:00 27.1 9 Oeste 23 Oeste 0 -- -- 61
2017-08-16 12:00:00 26.9 14 Oeste 22 Sudoeste 0 -- -- 59
2017-08-16 11:00:00 25 6 Sudoeste 13 Sudoeste 0 -- -- 68
2017-08-16 10:00:00 22.7 2 Este 5 Sudoeste 0 -- -- 76
2017-08-16 09:00:00 20.9 0 Calma 6 Nordeste 0 -- -- 81
2017-08-16 08:00:00 20.5 4 Este 6 Este 0 -- -- 85
2017-08-16 07:00:00 19.7 0 Calma 5 Nordeste 0 -- -- 87
2017-08-16 06:00:00 20 0 Calma 2 Nordeste 0 -- -- 86
2017-08-16 05:00:00 21 0 Calma 4 Nordeste 0 -- -- 82
2017-08-16 04:00:00 20.6 0 Calma 3 Sudeste 0 -- -- 85
2017-08-16 03:00:00 20.4 0 Calma 0 Calma 0 -- -- 83
2017-08-16 02:00:00 20.7 0 Calma 4 Sur 0 -- -- 81
2017-08-16 01:00:00 21.2 0 Calma 3 Norte 0 -- -- 82
2017-08-16 00:00:00 21.3 0 Calma 3 Sudoeste 0 -- -- 78
2017-08-15 23:00:00 21.8 0 Calma 5 Sudoeste 0 -- -- 78
2017-08-15 22:00:00 22.3 4 Sudoeste 7 Sudoeste 0 -- -- 76
2017-08-15 21:00:00 23 5 Sudoeste 10 Oeste 0 -- -- 74
2017-08-15 20:00:00 24 2 Oeste 15 Sudoeste 0 -- -- 70
2017-08-15 19:00:00 25.7 7 Sudoeste 19 Sudoeste 0 -- -- 64
2017-08-15 18:00:00 27.3 10 Sudoeste 20 Oeste 0 -- -- 59
2017-08-15 17:00:00 27.3 9 Oeste 20 Sudoeste 0 -- -- 57
2017-08-15 16:00:00 27.5 8 Oeste 17 Sudoeste 0 -- -- 56
2017-08-15 15:00:00 27.6 9 Oeste 18 Sudoeste 0 -- -- 54
2017-08-15 14:00:00 26.8 6 Oeste 18 Sudoeste 0 -- -- 58
2017-08-15 13:00:00 26.4 9 Oeste 17 Oeste 0 -- -- 60
2017-08-15 12:00:00 25.7 9 Oeste 18 Sudoeste 0 -- -- 59
2017-08-15 11:00:00 25.2 7 Oeste 14 Oeste 0 -- -- 62
2017-08-15 10:00:00 23.7 3 Oeste 7 Noroeste 0 -- -- 65
2017-08-15 09:00:00 19.8 0 Calma 6 Este 0 -- -- 78
2017-08-15 08:00:00 19.4 4 Este 8 Este 0 -- -- 75
2017-08-15 07:00:00 18.8 0 Calma 2 Nordeste 0 -- -- 80
2017-08-15 06:00:00 19.1 0 Calma 4 Este 0 -- -- 78
2017-08-15 05:00:00 20.2 0 Calma 8 Sudeste 0 -- -- 76
2017-08-15 04:00:00 21.1 3 Sudeste 8 Nordeste 0 -- -- 76
2017-08-15 03:00:00 21.1 2 Oeste 6 Noroeste 0 -- -- 80
2017-08-15 02:00:00 21.4 0 Calma 5 Sudoeste 0 -- -- 78
2017-08-15 01:00:00 22.2 4 Oeste 8 Oeste 0 -- -- 77
2017-08-15 00:00:00 22.4 3 Sur 18 Sur 0 -- -- 76
2017-08-14 23:00:00 22.8 8 Sudoeste 17 Sudoeste 0 -- -- 75
2017-08-14 22:00:00 23.1 5 Oeste 13 Sudoeste 0 -- -- 74
2017-08-14 21:00:00 23.6 5 Oeste 19 Sudoeste 0 -- -- 71
2017-08-14 20:00:00 26.1 6 Sudoeste 14 Sudoeste 0 -- -- 56
2017-08-14 19:00:00 27.3 7 Oeste 17 Oeste 0 -- -- 54
2017-08-14 18:00:00 27.3 9 Oeste 19 Sudoeste 0 -- -- 54
2017-08-14 17:00:00 27.7 10 Oeste 23 Oeste 0 -- -- 53
2017-08-14 16:00:00 27.5 10 Oeste 23 Oeste 0 -- -- 53
2017-08-14 15:00:00 27 10 Oeste 20 Oeste 0 -- -- 56
2017-08-14 14:00:00 27 8 Oeste 15 Sudoeste 0 -- -- 61
2017-08-14 13:00:00 26.3 8 Oeste 18 Oeste 0 -- -- 62
2017-08-14 12:00:00 25.3 6 Sudoeste 15 Sudoeste 0 -- -- 63
2017-08-14 11:00:00 24.2 6 Sudoeste 13 Sudoeste 0 -- -- 68
2017-08-14 10:00:00 22.8 6 Sudoeste 12 Sudoeste 0 -- -- 75
2017-08-14 09:00:00 21.6 0 Calma 5 Nordeste 0 -- -- 81
2017-08-14 08:00:00 20.4 0 Calma 4 Nordeste 0 -- -- 83
2017-08-14 07:00:00 21 0 Calma 6 Norte 0 -- -- 81
2017-08-14 06:00:00 21 3 Nordeste 10 Este 0 -- -- 82
2017-08-14 05:00:00 21 3 Este 14 Este 0 -- -- 81
2017-08-14 04:00:00 21.2 4 Nordeste 11 Sur 0 -- -- 83
2017-08-14 03:00:00 21.2 5 Este 11 Nordeste 0 -- -- 85
2017-08-14 02:00:00 21.2 3 Nordeste 8 Nordeste 0 -- -- 83
2017-08-14 01:00:00 21.5 4 Sudeste 7 Sur 0 -- -- 81
2017-08-14 00:00:00 21.5 2 Nordeste 5 Sudeste 0 -- -- 78
2017-08-13 23:00:00 22.2 2 Nordeste 11 Sudeste 0 -- -- 76
2017-08-13 22:00:00 22.4 4 Norte 10 Este 0 -- -- 78
2017-08-13 21:00:00 23.5 4 Oeste 12 Oeste 0 -- -- 71
2017-08-13 20:00:00 25.9 5 Oeste 12 Sudoeste 0 -- -- 61
2017-08-13 19:00:00 27.3 7 Oeste 15 Sudoeste 0 -- -- 61
2017-08-13 18:00:00 28.4 7 Oeste 17 Sudoeste 0 -- -- 52
2017-08-13 17:00:00 28.2 8 Sudoeste 18 Oeste 0 -- -- 57
2017-08-13 16:00:00 28 8 Oeste 17 Sudoeste 0 -- -- 57
2017-08-13 15:00:00 27.6 9 Oeste 19 Sudoeste 0 -- -- 59
2017-08-13 14:00:00 27.2 10 Oeste 18 Sudoeste 0 -- -- 61
2017-08-13 13:00:00 26.4 10 Sudoeste 21 Sudoeste 0 -- -- 63
2017-08-13 12:00:00 26.3 10 Oeste 20 Oeste 0 -- -- 63
2017-08-13 11:00:00 26.2 8 Sudoeste 15 Sudoeste 0 -- -- 65
2017-08-13 10:00:00 24.5 3 Noroeste 5 Noroeste 0 -- -- 62
2017-08-13 09:00:00 20.6 0 Calma 5 Este 0 -- -- 77
2017-08-13 08:00:00 19.7 2 Este 4 Sudeste 0 -- -- 79
2017-08-13 07:00:00 19.3 0 Calma 5 Nordeste 0 -- -- 79
2017-08-13 06:00:00 19.9 0 Calma 5 Este 0 -- -- 77
2017-08-13 05:00:00 20.3 0 Calma 6 Este 0 -- -- 76
2017-08-13 04:00:00 20.5 0 Calma 6 Este 0 -- -- 76
2017-08-13 03:00:00 21.6 4 Este 6 Este 0 -- -- 77
2017-08-13 02:00:00 21 2 Sudeste 5 Sudeste 0 -- -- 87
2017-08-13 01:00:00 21.5 0 Calma 6 Sudoeste 0 -- -- 86
2017-08-13 00:00:00 21.6 2 Noroeste 6 Oeste 0 -- -- 83
2017-08-12 23:00:00 22 2 Norte 7 Sudoeste 0 -- -- 81
2017-08-12 22:00:00 23.2 4 Sur 6 Sur 0 -- -- 73
2017-08-12 21:00:00 24.2 2 Norte 8 Sudoeste 0 -- -- 72
2017-08-12 20:00:00 26.4 5 Sudoeste 18 Sudoeste 0 -- -- 60
2017-08-12 19:00:00 26.8 9 Oeste 25 Sudoeste 0 -- -- 60
2017-08-12 18:00:00 27.2 8 Sudoeste 19 Sudoeste 0 -- -- 59
2017-08-12 17:00:00 27.3 10 Sudoeste 24 Oeste 0 -- -- 62
2017-08-12 16:00:00 27.7 10 Oeste 24 Sudoeste 0 -- -- 62
2017-08-12 15:00:00 27.3 11 Oeste 27 Noroeste 0 -- -- 62
2017-08-12 14:00:00 27.5 12 Oeste 26 Oeste 0 -- -- 60
2017-08-12 13:00:00 28.2 12 Noroeste 20 Oeste 0 -- -- 59
2017-08-12 12:00:00 27.3 4 Oeste 13 Oeste 0 -- -- 59
2017-08-12 11:00:00 26.6 6 Oeste 14 Sudoeste 0 -- -- 58
2017-08-12 10:00:00 25.1 2 Oeste 10 Sudeste 0 -- -- 60
2017-08-12 09:00:00 20.8 3 Sudeste 10 Nordeste 0 -- -- 76
2017-08-12 08:00:00 20.1 6 Este 9 Nordeste 0 -- -- 82
2017-08-12 07:00:00 19.9 3 Sudeste 5 Nordeste 0 -- -- 76
2017-08-12 06:00:00 19 0 Calma 6 Este 0 -- -- 74
2017-08-12 05:00:00 20 0 Calma 9 Nordeste 0 -- -- 73
2017-08-12 04:00:00 21.1 5 Nordeste 9 Este 0 -- -- 71
2017-08-12 03:00:00 20.7 2 Este 4 Este 0 -- -- 74
2017-08-12 02:00:00 21.4 3 Este 7 Este 0 -- -- 71
2017-08-12 01:00:00 21.5 0 Calma 4 Este 0 -- -- 73
2017-08-12 00:00:00 21.5 0 Calma 3 Norte 0 -- -- 76
2017-08-11 23:00:00 22 2 Norte 6 Oeste 0 -- -- 74
2017-08-11 22:00:00 22.7 0 Calma 5 Oeste 0 -- -- 69
2017-08-11 21:00:00 23.9 3 Oeste 8 Oeste 0 -- -- 68
2017-08-11 20:00:00 25.8 5 Oeste 15 Oeste 0 -- -- 62
2017-08-11 19:00:00 26.7 8 Sudoeste 18 Sudoeste 0 -- -- 61
2017-08-11 18:00:00 27.9 11 Sudoeste 22 Sudoeste 0 -- -- 56
2017-08-11 17:00:00 28.6 11 Sudoeste 20 Oeste 0 -- -- 51
2017-08-11 16:00:00 28.7 9 Sudoeste 21 Sudoeste 0 -- -- 51
2017-08-11 15:00:00 28 11 Sudoeste 18 Sudoeste 0 -- -- 52
2017-08-11 14:00:00 27.9 10 Sudoeste 20 Oeste 0 -- -- 55
2017-08-11 13:00:00 27.6 8 Sudoeste 19 Sudoeste 0 -- -- 55
2017-08-11 12:00:00 26.4 7 Sudoeste 21 Sudoeste 0 -- -- 60
2017-08-11 11:00:00 25.6 8 Sudoeste 15 Sudoeste 0 -- -- 61
2017-08-11 10:00:00 24.5 5 Oeste 12 Oeste 0 -- -- 65
2017-08-11 09:00:00 22.3 3 Norte 10 Nordeste 0 -- -- 75
2017-08-11 08:00:00 21.6 4 Este 16 Nordeste 0 -- -- 77
2017-08-11 07:00:00 22 10 Nordeste 19 Nordeste 0 -- -- 75
2017-08-11 06:00:00 21.5 3 Norte 14 Norte 0 -- -- 79
2017-08-11 05:00:00 21.6 3 Este 8 Nordeste 0 -- -- 77
2017-08-11 04:00:00 21.9 3 Este 8 Sur 0 -- -- 79
2017-08-11 03:00:00 22.6 4 Este 8 Nordeste 0 -- -- 71
2017-08-11 02:00:00 22.3 0 Calma 9 Sudoeste 0 -- -- 78
2017-08-11 01:00:00 23.6 3 Sudeste 4 Sudeste 0 -- -- 66
2017-08-11 00:00:00 23.7 0 Calma 8 Sudoeste 0 -- -- 65
2017-08-10 23:00:00 23.9 0 Calma 4 Este 0 -- -- 65
2017-08-10 22:00:00 24 0 Calma 7 Oeste 0 -- -- 66
2017-08-10 21:00:00 25 3 Noroeste 14 Oeste 0 -- -- 66
2017-08-10 20:00:00 26.9 7 Oeste 17 Oeste 0 -- -- 60
2017-08-10 19:00:00 29.5 8 Oeste 15 Oeste 0 -- -- 51
2017-08-10 18:00:00 29.5 6 Sudoeste 16 Oeste 0 -- -- 51
2017-08-10 17:00:00 29.7 9 Sudoeste 19 Sudoeste 0 -- -- 50
2017-08-10 16:00:00 29.7 10 Sudoeste 20 Oeste 0 -- -- 53
2017-08-10 15:00:00 29.1 13 Sudoeste 26 Sudoeste 0 -- -- 55
2017-08-10 14:00:00 29.3 12 Oeste 22 Oeste 0 -- -- 51
2017-08-10 13:00:00 28.1 10 Sudoeste 21 Sudoeste 0 -- -- 57
2017-08-10 12:00:00 27.4 11 Oeste 19 Sudoeste 0 -- -- 62
2017-08-10 11:00:00 26.3 7 Sudoeste 12 Sudoeste 0 -- -- 64
2017-08-10 10:00:00 24.5 6 Sudoeste 13 Oeste 0 -- -- 73
2017-08-10 09:00:00 23.2 4 Sudoeste 14 Nordeste 0 -- -- 79
2017-08-10 08:00:00 23 6 Nordeste 17 Nordeste 0 -- -- 72
2017-08-10 07:00:00 22.1 4 Este 13 Sur 0 -- -- 82
2017-08-10 06:00:00 22.4 3 Nordeste 6 Este 0 -- -- 71
2017-08-10 05:00:00 23.1 3 Este 5 Sudeste 0 -- -- 69
2017-08-10 04:00:00 23.1 3 Nordeste 9 Sudeste 0 -- -- 70
2017-08-10 03:00:00 23.7 0 Calma 8 Sudeste 0 -- -- 68
2017-08-10 02:00:00 23.9 2 Este 6 Este 0 -- -- 68
2017-08-10 01:00:00 23.6 4 Este 5 Nordeste 0 -- -- 72
2017-08-10 00:00:00 23.8 0 Calma 6 Sur 0 -- -- 73
2017-08-09 23:00:00 24.2 3 Oeste 10 Sudoeste 0 -- -- 69
2017-08-09 22:00:00 24.8 3 Norte 10 Sur 0 -- -- 67
2017-08-09 21:00:00 25.9 4 Oeste 26 Sudoeste 0 -- -- 63
2017-08-09 20:00:00 26.4 4 Noroeste 18 Sur 0 -- -- 68
2017-08-09 19:00:00 27.9 4 Sur 22 Oeste 0 -- -- 60
2017-08-09 18:00:00 29.7 11 Oeste 24 Sudoeste 0 -- -- 58
2017-08-09 17:00:00 29.1 9 Oeste 28 Oeste 0 -- -- 58
2017-08-09 16:00:00 29.1 14 Oeste 32 Oeste 0 -- -- 59
2017-08-09 15:00:00 30.5 9 Oeste 19 Sudoeste 0 -- -- 54
2017-08-09 14:00:00 29.1 6 Sudoeste 15 Oeste 0 -- -- 60
2017-08-09 13:00:00 28.6 7 Oeste 15 Oeste 0 -- -- 60
2017-08-09 12:00:00 27.7 6 Oeste 13 Sudoeste 0 -- -- 66
2017-08-09 11:00:00 27 4 Sudoeste 11 Oeste 0 -- -- 66
2017-08-09 10:00:00 25.4 4 Noroeste 9 Sudoeste 0 -- -- 75
2017-08-09 09:00:00 22.7 0 Calma 7 Oeste 0 -- -- 86
2017-08-09 08:00:00 22 3 Nordeste 4 Nordeste 0 -- -- 83
2017-08-09 07:00:00 21.7 0 Calma 6 Nordeste 0 -- -- 83
2017-08-09 06:00:00 22.4 3 Nordeste 7 Este 0 -- -- 85
2017-08-09 05:00:00 22.5 3 Nordeste 10 Oeste 0 -- -- 87
2017-08-09 04:00:00 22.5 2 Noroeste 13 Sudoeste 0 -- -- 86
2017-08-09 03:00:00 23 3 Noroeste 9 Sur 0 -- -- 85
2017-08-09 02:00:00 23.1 3 Oeste 7 Oeste 0 -- -- 86
2017-08-09 01:00:00 23.1 0 Calma 6 Sudoeste 0 -- -- 85
2017-08-09 00:00:00 23.2 2 Sudeste 8 Sudoeste 0 -- -- 84
2017-08-08 23:00:00 23.2 3 Sudoeste 7 Oeste 0 -- -- 84
2017-08-08 22:00:00 23.6 4 Oeste 11 Oeste 0 -- -- 83
2017-08-08 21:00:00 24.6 0 Calma 8 Oeste 0 -- -- 76
2017-08-08 20:00:00 25.1 3 Oeste 16 Sudoeste 0 -- -- 76
2017-08-08 19:00:00 26.2 6 Sudoeste 22 Oeste 0 -- -- 73
2017-08-08 18:00:00 28 9 Sudoeste 19 Sudoeste 0 -- -- 66
2017-08-08 17:00:00 28.2 11 Sudoeste 19 Oeste 0 -- -- 65
2017-08-08 16:00:00 29 10 Sudoeste 18 Sudoeste 0 -- -- 62
2017-08-08 15:00:00 28.2 7 Sudoeste 14 Sudoeste 0 -- -- 65
2017-08-08 14:00:00 28.3 6 Oeste 19 Oeste 0 -- -- 66
2017-08-08 13:00:00 28.9 9 Oeste 18 Oeste 0 -- -- 65
2017-08-08 12:00:00 28.8 6 Oeste 24 Sudoeste 0 -- -- 65
2017-08-08 11:00:00 27.3 8 Sudoeste 27 Sudoeste 0 -- -- 71
2017-08-08 10:00:00 24.8 13 Sudoeste 24 Sudoeste 0 -- -- 80
2017-08-08 09:00:00 23.3 7 Oeste 14 Oeste 0 -- -- 86
2017-08-08 08:00:00 22.5 4 Sur 7 Sudoeste 0 -- -- 89
2017-08-08 07:00:00 22.7 2 Sudoeste 6 Oeste 0 -- -- 88
2017-08-08 06:00:00 23.1 3 Oeste 12 Oeste 0 -- -- 86
2017-08-08 05:00:00 23 7 Noroeste 27 Noroeste 0 -- -- 87
2017-08-08 04:00:00 23.1 6 Oeste 13 Oeste 0 -- -- 88
2017-08-08 03:00:00 23.3 7 Oeste 18 Oeste 0 -- -- 86
2017-08-08 02:00:00 24 5 Noroeste 15 Sur 0 -- -- 81
2017-08-08 01:00:00 24 3 Nordeste 9 Sur 0 -- -- 79
2017-08-08 00:00:00 24.2 2 Norte 19 Sur 0 -- -- 78
2017-08-07 23:00:00 24.4 12 Sudoeste 18 Sudoeste 0 -- -- 77
2017-08-07 22:00:00 24.4 0 Calma 6 Sudoeste 0 -- -- 80
2017-08-07 21:00:00 25.2 0 Calma 6 Oeste 0 -- -- 75
2017-08-07 20:00:00 26 3 Oeste 10 Oeste 0 -- -- 72
2017-08-07 19:00:00 27.2 6 Sudoeste 14 Sudoeste 0 -- -- 67
2017-08-07 18:00:00 27.8 8 Oeste 19 Sudoeste 0 -- -- 66
2017-08-07 17:00:00 28.7 10 Oeste 28 Sudoeste 0 -- -- 64
2017-08-07 16:00:00 29.5 13 Sudoeste 27 Oeste 0 -- -- 59
2017-08-07 15:00:00 30.2 10 Sudoeste 25 Oeste 0 -- -- 57
2017-08-07 14:00:00 28.7 7 Oeste 15 Sudoeste 0 -- -- 63
2017-08-07 13:00:00 28.7 8 Oeste 14 Oeste 0 -- -- 64
2017-08-07 12:00:00 28.7 3 Norte 10 Sudoeste 0 -- -- 64
2017-08-07 11:00:00 26.3 5 Sudoeste 9 Oeste 0 -- -- 71
2017-08-07 10:00:00 24.4 5 Sudoeste 12 Sudoeste 0 -- -- 79
2017-08-07 09:00:00 23.3 4 Nordeste 9 Este 0 -- -- 77
2017-08-07 08:00:00 21.9 2 Sudoeste 8 Norte 0 -- -- 87
2017-08-07 07:00:00 22.1 0 Calma 8 Oeste 0 -- -- 85
2017-08-07 06:00:00 22.4 5 Oeste 18 Noroeste 0 -- -- 87
2017-08-07 05:00:00 22.6 6 Noroeste 19 Oeste 0 -- -- 85
2017-08-07 04:00:00 22.4 8 Noroeste 15 Noroeste 0 -- -- 87
2017-08-07 03:00:00 22.7 0 Calma 14 Sudoeste 0 -- -- 83
2017-08-07 02:00:00 23 6 Oeste 17 Sudoeste 0 -- -- 84
2017-08-07 01:00:00 22.7 5 Oeste 12 Oeste 0 -- -- 86
2017-08-07 00:00:00 22.6 0 Calma 10 Noroeste 0 -- -- 84
2017-08-06 23:00:00 23 6 Noroeste 14 Oeste 0 -- -- 85
2017-08-06 22:00:00 23.6 4 Noroeste 11 Noroeste 0 -- -- 79
2017-08-06 21:00:00 24.7 4 Sudoeste 23 Sudoeste 0 -- -- 74
2017-08-06 20:00:00 26 6 Oeste 21 Sudoeste 0 -- -- 69
2017-08-06 19:00:00 27.2 11 Sudoeste 27 Sudoeste 0 -- -- 65
2017-08-06 18:00:00 28.4 6 Oeste 15 Sudoeste 0 -- -- 59
2017-08-06 17:00:00 27.6 9 Oeste 18 Oeste 0 -- -- 62
2017-08-06 16:00:00 27.6 10 Oeste 18 Oeste 0 -- -- 62
2017-08-06 15:00:00 27.5 6 Oeste 17 Sudoeste 0 -- -- 64
2017-08-06 14:00:00 27.4 7 Oeste 18 Sudoeste 0 -- -- 63
2017-08-06 13:00:00 26.8 8 Sudoeste 21 Oeste 0 -- -- 63
2017-08-06 12:00:00 26.7 7 Oeste 15 Noroeste 0 -- -- 63
2017-08-06 11:00:00 26.2 7 Sur 22 Sudoeste 0 -- -- 63
2017-08-06 10:00:00 25.2 5 Oeste 12 Oeste 0 -- -- 66
2017-08-06 09:00:00 23.2 4 Nordeste 10 Sudoeste 0 -- -- 74
2017-08-06 08:00:00 22.6 5 Sudoeste 8 Oeste 0 -- -- 76
2017-08-06 07:00:00 22.7 3 Oeste 11 Oeste 0 -- -- 76
2017-08-06 06:00:00 22.8 5 Oeste 12 Oeste 0 -- -- 76
2017-08-06 05:00:00 22.9 4 Sudoeste 10 Sudoeste 0 -- -- 78
2017-08-06 04:00:00 23.1 4 Oeste 6 Oeste 0 -- -- 77
2017-08-06 03:00:00 23.3 3 Oeste 7 Sudoeste 0 -- -- 76
2017-08-06 02:00:00 23.3 0 Calma 4 Oeste 0 -- -- 76
2017-08-06 01:00:00 23.3 3 Sudoeste 10 Oeste 0 -- -- 78
2017-08-06 00:00:00 23.5 4 Oeste 9 Oeste 0 -- -- 79
2017-08-05 23:00:00 23.7 4 Oeste 8 Oeste 0 -- -- 77
2017-08-05 22:00:00 23.6 4 Norte 7 Sudoeste 0 -- -- 77
2017-08-05 21:00:00 23.9 4 Oeste 15 Oeste 0 -- -- 74
2017-08-05 20:00:00 26 8 Sudoeste 16 Sudoeste 0 -- -- 65
2017-08-05 19:00:00 27.5 8 Sudoeste 15 Sudoeste 0 -- -- 60
2017-08-05 18:00:00 27.5 10 Oeste 17 Oeste 0 -- -- 60
2017-08-05 17:00:00 27 10 Sudoeste 18 Oeste 0 -- -- 62
2017-08-05 16:00:00 27.3 9 Sudoeste 20 Oeste 0 -- -- 62
2017-08-05 15:00:00 27.4 10 Sudoeste 20 Sudoeste 0 -- -- 59
2017-08-05 14:00:00 27.8 8 Oeste 18 Oeste 0 -- -- 56
2017-08-05 13:00:00 26.8 8 Sudoeste 16 Sudoeste 0 -- -- 59
2017-08-05 12:00:00 26.3 9 Sudoeste 16 Sudoeste 0 -- -- 62
2017-08-05 11:00:00 25.7 8 Oeste 14 Oeste 0 -- -- 63
2017-08-05 10:00:00 24.8 3 Noroeste 9 Oeste 0 -- -- 64
2017-08-05 09:00:00 22.4 5 Sudoeste 9 Sudoeste 0 -- -- 73
2017-08-05 08:00:00 21.2 5 Noroeste 9 Noroeste 0 -- -- 81
2017-08-05 07:00:00 21.2 2 Este 12 Nordeste 0 -- -- 75
2017-08-05 06:00:00 21.4 4 Sudeste 9 Sudeste 0 -- -- 76
2017-08-05 05:00:00 21.8 0 Calma 10 Noroeste 0 -- -- 78
2017-08-05 04:00:00 21 4 Oeste 10 Oeste 0 -- -- 84
2017-08-05 03:00:00 20.7 0 Calma 3 Noroeste 0 -- -- 80
2017-08-05 02:00:00 21.4 0 Calma 8 Sur 0 -- -- 81
2017-08-05 01:00:00 21.2 0 Calma 6 Oeste 0 -- -- 82
2017-08-05 00:00:00 21.7 0 Calma 8 Sudoeste 0 -- -- 79
2017-08-04 23:00:00 22.4 3 Oeste 6 Sudoeste 0 -- -- 78
2017-08-04 22:00:00 22.4 3 Sudoeste 7 Oeste 0 -- -- 77
2017-08-04 21:00:00 23.3 4 Oeste 12 Sudoeste 0 -- -- 71
2017-08-04 20:00:00 25.7 6 Oeste 16 Noroeste 0 -- -- 62
2017-08-04 19:00:00 27.4 8 Oeste 23 Sur 0 -- -- 57
2017-08-04 18:00:00 28 12 Oeste 32 Oeste 0 -- -- 54
2017-08-04 17:00:00 27.8 11 Sudoeste 30 Oeste 0 -- -- 55
2017-08-04 16:00:00 27 13 Sudoeste 26 Sudoeste 0 -- -- 59
2017-08-04 15:00:00 27.5 11 Sudoeste 21 Sudoeste 0 -- -- 55
2017-08-04 14:00:00 26.8 12 Sudoeste 22 Oeste 0 -- -- 57
2017-08-04 13:00:00 26.3 8 Sudoeste 19 Sudoeste 0 -- -- 57
2017-08-04 12:00:00 25.1 7 Oeste 17 Sudoeste 0 -- -- 61
2017-08-04 11:00:00 24.1 8 Sudoeste 14 Sudoeste 0 -- -- 64
2017-08-04 10:00:00 23.2 5 Sudoeste 10 Sudoeste 0 -- -- 70
2017-08-04 09:00:00 21.6 4 Sudoeste 6 Oeste 0 -- -- 76
2017-08-04 08:00:00 20.3 0 Calma 3 Nordeste 0 -- -- 75
2017-08-04 07:00:00 21.2 2 Este 4 Este 0 -- -- 70
2017-08-04 06:00:00 21.6 0 Calma 7 Noroeste 0 -- -- 74
2017-08-04 05:00:00 21.5 4 Noroeste 12 Norte 0 -- -- 76
2017-08-04 04:00:00 21.5 5 Noroeste 9 Noroeste 0 -- -- 77
2017-08-04 03:00:00 21.7 0 Calma 9 Sudoeste 0 -- -- 74
2017-08-04 02:00:00 22.3 4 Sudoeste 5 Sudoeste 0 -- -- 74
2017-08-04 01:00:00 22.3 3 Sudoeste 9 Sudoeste 0 -- -- 76
2017-08-04 00:00:00 21.8 2 Oeste 15 Oeste 0 -- -- 75
2017-08-03 23:00:00 21.7 3 Norte 6 Norte 0 -- -- 75
2017-08-03 22:00:00 22.1 0 Calma 13 Sudoeste 0 -- -- 73
2017-08-03 21:00:00 23.1 5 Sudoeste 21 Sudoeste 0 -- -- 70
2017-08-03 20:00:00 25.3 8 Oeste 17 Oeste 0 -- -- 60
2017-08-03 19:00:00 26.2 6 Oeste 18 Sur 0 -- -- 55
2017-08-03 18:00:00 27.1 9 Oeste 21 Sudoeste 0 -- -- 53
2017-08-03 17:00:00 27 9 Oeste 22 Oeste 0 -- -- 53
2017-08-03 16:00:00 27.1 11 Oeste 22 Oeste 0 -- -- 52
2017-08-03 15:00:00 26.6 13 Oeste 31 Oeste 0 -- -- 56
2017-08-03 14:00:00 26.7 12 Oeste 23 Oeste 0 -- -- 54
2017-08-03 13:00:00 26.2 10 Oeste 20 Oeste 0 -- -- 56
2017-08-03 12:00:00 25.1 7 Oeste 17 Sudoeste 0 -- -- 61
2017-08-03 11:00:00 24.5 5 Oeste 13 Sudoeste 0 -- -- 63
2017-08-03 10:00:00 23.8 4 Noroeste 10 Oeste 0 -- -- 65
2017-08-03 09:00:00 22.2 0 Calma 4 Sudoeste 0 -- -- 72
2017-08-03 08:00:00 21.4 3 Sur 5 Sur 0 -- -- 72
2017-08-03 07:00:00 21.4 0 Calma 8 Oeste 0 -- -- 73
2017-08-03 06:00:00 22 4 Noroeste 9 Norte 0 -- -- 72
2017-08-03 05:00:00 22.1 0 Calma 6 Sudoeste 0 -- -- 72
2017-08-03 04:00:00 22.1 5 Sudoeste 8 Sudoeste 0 -- -- 74
2017-08-03 03:00:00 22.3 0 Calma 7 Sudoeste 0 -- -- 73
2017-08-03 02:00:00 22.4 3 Sudoeste 10 Sudoeste 0 -- -- 72
2017-08-03 01:00:00 22.3 3 Noroeste 8 Noroeste 0 -- -- 74
2017-08-03 00:00:00 21.9 0 Calma 6 Sudoeste 0 -- -- 75
2017-08-02 23:00:00 22.1 0 Calma 6 Noroeste 0 -- -- 74
2017-08-02 22:00:00 22.4 0 Calma 9 Sudoeste 0 -- -- 74
2017-08-02 21:00:00 23.5 0 Calma 7 Oeste 0 -- -- 68
2017-08-02 20:00:00 24.2 6 Sudoeste 17 Oeste 0 -- -- 68
2017-08-02 19:00:00 25.5 10 Oeste 20 Sudoeste 0 -- -- 64
2017-08-02 18:00:00 25.5 8 Sudoeste 22 Sudoeste 0 -- -- 64
2017-08-02 17:00:00 27.5 9 Sudoeste 16 Sur 0 -- -- 55
2017-08-02 16:00:00 26.6 8 Sudoeste 15 Sudoeste 0 -- -- 57
2017-08-02 15:00:00 26.5 8 Oeste 21 Sudoeste 0 -- -- 61
2017-08-02 14:00:00 27.2 10 Oeste 21 Sudoeste 0 -- -- 58
2017-08-02 13:00:00 26.7 10 Oeste 18 Oeste 0 -- -- 60
2017-08-02 12:00:00 25.1 9 Oeste 14 Oeste 0 -- -- 65
2017-08-02 11:00:00 25 4 Oeste 12 Sudoeste 0 -- -- 69
2017-08-02 10:00:00 24.3 5 Sudoeste 13 Sudoeste 0 -- -- 72
2017-08-02 09:00:00 22.7 2 Sur 7 Sur 0 -- -- 76
2017-08-02 08:00:00 21.9 5 Sur 9 Sur 0 -- -- 79
2017-08-02 07:00:00 21.7 2 Noroeste 8 Noroeste 0 -- -- 79
2017-08-02 06:00:00 21 0 Calma 5 Nordeste 0 -- -- 81
2017-08-02 05:00:00 21.1 3 Nordeste 5 Nordeste 0 -- -- 82
2017-08-02 04:00:00 21.2 0 Calma 8 Sur 0 -- -- 84
2017-08-02 03:00:00 21.2 0 Calma 2 Este 0 -- -- 85
2017-08-02 02:00:00 21.9 0 Calma 6 Sudoeste 0 -- -- 83
2017-08-02 01:00:00 22.2 3 Oeste 9 Oeste 0 -- -- 82
2017-08-02 00:00:00 22.5 4 Noroeste 9 Noroeste 0 -- -- 81
2017-08-01 23:00:00 22.4 3 Noroeste 8 Oeste 0 -- -- 83
2017-08-01 22:00:00 22.6 3 Oeste 7 Sudoeste 0 -- -- 81
2017-08-01 21:00:00 22.9 5 Sudoeste 10 Sudoeste 0 -- -- 79
2017-08-01 20:00:00 23.5 5 Sudoeste 12 Sudoeste 0 -- -- 74
2017-08-01 19:00:00 23.8 8 Sudoeste 19 Sudoeste 0 -- -- 74
2017-08-01 18:00:00 25.6 7 Oeste 19 Sudoeste 0 -- -- 69
2017-08-01 17:00:00 24.8 9 Sudoeste 17 Sudoeste 0 -- -- 66
2017-08-01 16:00:00 26.5 8 Oeste 18 Oeste 0 -- -- 59
2017-08-01 15:00:00 27.5 10 Sudoeste 18 Sudoeste 0 -- -- 57
2017-08-01 14:00:00 26 7 Oeste 16 Noroeste 0 -- -- 62
2017-08-01 13:00:00 25.8 5 Oeste 20 Oeste 0 -- -- 61
2017-08-01 12:00:00 25.3 8 Sudoeste 16 Sudoeste 0 -- -- 64
2017-08-01 11:00:00 24.6 6 Sudoeste 14 Oeste 0 -- -- 66
2017-08-01 10:00:00 23.8 9 Oeste 17 Oeste 0 -- -- 70
2017-08-01 09:00:00 21.6 4 Noroeste 7 Noroeste 0 -- -- 77
2017-08-01 08:00:00 20.7 0 Calma 6 Nordeste 0 -- -- 77
2017-08-01 07:00:00 20.8 5 Nordeste 8 Nordeste 0 -- -- 78
2017-08-01 06:00:00 20.3 2 Norte 9 Sudoeste 0 -- -- 80
2017-08-01 05:00:00 21.5 5 Oeste 10 Oeste 0 -- -- 75
2017-08-01 04:00:00 21.6 4 Sudoeste 9 Sudoeste 0 -- -- 80
2017-08-01 03:00:00 21.8 6 Sudoeste 11 Sudoeste 0 -- -- 78
2017-08-01 02:00:00 22 5 Oeste 12 Oeste 0 -- -- 80
2017-08-01 01:00:00 21.6 3 Oeste 6 Oeste 0 -- -- 80
2017-08-01 00:00:00 21.5 0 Calma 7 Oeste 0 -- -- 79
2017-07-31 23:00:00 21.9 4 Sudoeste 9 Sudoeste 0 -- -- 76
2017-07-31 22:00:00 21.9 5 Sudoeste 9 Sudoeste 0 -- -- 76
2017-07-31 21:00:00 22.6 5 Sudoeste 17 Sudoeste 0 -- -- 72
2017-07-31 20:00:00 23.2 9 Sudoeste 20 Sudoeste 0 -- -- 69
2017-07-31 19:00:00 24.6 10 Oeste 22 Oeste 0 -- -- 64
2017-07-31 18:00:00 26.3 11 Oeste 26 Noroeste 0 -- -- 57
2017-07-31 17:00:00 26.8 10 Oeste 22 Oeste 0 -- -- 56
2017-07-31 16:00:00 27 10 Oeste 22 Oeste 0 -- -- 56
2017-07-31 15:00:00 26.5 10 Oeste 21 Sudoeste 0 -- -- 56
2017-07-31 14:00:00 26.6 8 Oeste 21 Sudoeste 0 -- -- 58
2017-07-31 13:00:00 26.3 9 Oeste 19 Oeste 0 -- -- 57
2017-07-31 12:00:00 25.4 9 Sudoeste 24 Sudoeste 0 -- -- 59
2017-07-31 11:00:00 24.5 8 Sudoeste 19 Sudoeste 0 -- -- 64
2017-07-31 10:00:00 23.8 4 Noroeste 17 Noroeste 0 -- -- 67
2017-07-31 09:00:00 21.6 8 Noroeste 21 Oeste 0 -- -- 73
2017-07-31 08:00:00 20.1 2 Oeste 6 Oeste 0 -- -- 81
2017-07-31 07:00:00 20.5 0 Calma 8 Sudoeste 0 -- -- 76
2017-07-31 06:00:00 21 0 Calma 3 Sudeste 0 -- -- 79
2017-07-31 05:00:00 21.2 2 Sur 10 Oeste 0 -- -- 78
2017-07-31 04:00:00 21.3 5 Oeste 12 Sudoeste 0 -- -- 80
2017-07-31 03:00:00 21 4 Oeste 8 Oeste 0 -- -- 83
2017-07-31 02:00:00 20.3 3 Norte 8 Norte 0 -- -- 86
2017-07-31 01:00:00 20.7 0 Calma -- -- 0 -- -- 79
2017-07-31 00:00:00 21.6 0 Calma 6 Sudoeste 0 -- -- 80
2017-07-30 23:00:00 21.9 3 Sudoeste 10 Sudoeste 0 -- -- 80
2017-07-30 22:00:00 22.3 2 Oeste 14 Sudoeste 0 -- -- 76
2017-07-30 21:00:00 23.5 6 Oeste 12 Oeste 0 -- -- 72
2017-07-30 20:00:00 25.7 6 Noroeste 20 Sudoeste 0 -- -- 64
2017-07-30 19:00:00 26.2 11 Oeste 26 Oeste 0 -- -- 63
2017-07-30 18:00:00 27.3 10 Sudoeste 22 Sudoeste 0 -- -- 59
2017-07-30 17:00:00 27.4 11 Sudoeste 21 Sudoeste 0 -- -- 59
2017-07-30 16:00:00 27.7 7 Oeste 18 Sudoeste 0 -- -- 60
2017-07-30 15:00:00 27.2 10 Oeste 25 Sudoeste 0 -- -- 62
2017-07-30 14:00:00 26.8 11 Oeste 26 Sudoeste 0 -- -- 62
2017-07-30 13:00:00 26.5 9 Oeste 22 Sudoeste 0 -- -- 64
2017-07-30 12:00:00 26 10 Sudoeste 22 Oeste 0 -- -- 68
2017-07-30 11:00:00 25.4 6 Sudoeste 13 Sudoeste 0 -- -- 69
2017-07-30 10:00:00 24 6 Sudoeste 10 Sudoeste 0 -- -- 75
2017-07-30 09:00:00 21.6 3 Nordeste 13 Sudeste 0 -- -- 85
2017-07-30 08:00:00 20.3 0 Calma 11 Este 0 -- -- 88
2017-07-30 07:00:00 20.8 3 Sur 6 Nordeste 0 -- -- 90
2017-07-30 06:00:00 20.1 0 Calma 4 Nordeste 0 -- -- 87
2017-07-30 05:00:00 20.9 3 Este 10 Este 0 -- -- 88
2017-07-30 04:00:00 21.4 2 Sudoeste 7 Sudoeste 0 -- -- 89
2017-07-30 03:00:00 21.2 0 Calma 4 Sudoeste 0 -- -- 88
2017-07-30 02:00:00 21.6 2 Este 7 Este 0 -- -- 88
2017-07-30 01:00:00 22 3 Sudeste 7 Oeste 0 -- -- 87
2017-07-30 00:00:00 22.4 4 Sudoeste 8 Sudoeste 0 -- -- 87
2017-07-29 23:00:00 22.7 0 Calma 3 Norte 0 -- -- 83
2017-07-29 22:00:00 23.5 2 Norte 12 Sur 0 -- -- 79
2017-07-29 21:00:00 25.5 2 Sudoeste 9 Noroeste 0 -- -- 70
2017-07-29 20:00:00 27.5 5 Oeste 24 Sudoeste 0 -- -- 64
2017-07-29 19:00:00 29.8 5 Sudoeste 15 Oeste 0 -- -- 54
2017-07-29 18:00:00 30.9 7 Sudoeste 14 Oeste 0 -- -- 49
2017-07-29 17:00:00 31.1 8 Oeste 17 Sudoeste 0 -- -- 49
2017-07-29 16:00:00 30.1 8 Oeste 16 Sudoeste 0 -- -- 53
2017-07-29 15:00:00 30 8 Sudoeste 15 Sudoeste 0 -- -- 55
2017-07-29 14:00:00 30.3 7 Sudoeste 16 Sudoeste 0 -- -- 49
2017-07-29 13:00:00 30.8 6 Sudoeste 14 Oeste 0 -- -- 48
2017-07-29 12:00:00 29.7 8 Sudoeste 14 Sudoeste 0 -- -- 48
2017-07-29 11:00:00 28.6 6 Sudoeste 13 Sudoeste 0 -- -- 55
2017-07-29 10:00:00 27.2 4 Norte 12 Oeste 0 -- -- 50
2017-07-29 09:00:00 22.9 3 Este 6 Este 0 -- -- 65
2017-07-29 08:00:00 20.2 0 Calma 10 Sudoeste 0 -- -- 73
2017-07-29 07:00:00 20.9 2 Noroeste 8 Sudoeste 0 -- -- 67
2017-07-29 06:00:00 21.5 0 Calma 4 Sudoeste 0 -- -- 64
2017-07-29 05:00:00 22.2 2 Nordeste 15 Nordeste 0 -- -- 66
2017-07-29 04:00:00 22.9 4 Sudeste 9 Sudoeste 0 -- -- 72
2017-07-29 03:00:00 23.6 5 Este 8 Este 0 -- -- 64
2017-07-29 02:00:00 23.3 3 Sudeste 6 Este 0 -- -- 70
2017-07-29 01:00:00 22.8 0 Calma 6 Nordeste 0 -- -- 77
2017-07-29 00:00:00 23.9 5 Sudoeste 10 Sudoeste 0 -- -- 73
2017-07-28 23:00:00 24.9 6 Sudoeste 22 Sudeste 0 -- -- 68
2017-07-28 22:00:00 25.2 0 Calma 9 Sudoeste 0 -- -- 68
2017-07-28 21:00:00 26.3 0 Calma 9 Sudoeste 0 -- -- 68
2017-07-28 20:00:00 27.6 5 Sudoeste 12 Oeste 0 -- -- 64
2017-07-28 19:00:00 29.7 5 Sudoeste 12 Sudoeste 0 -- -- 54
2017-07-28 18:00:00 31.6 6 Sudoeste 15 Sudoeste 0 -- -- 47
2017-07-28 17:00:00 32.7 9 Sudoeste 14 Sudoeste 0 -- -- 44
2017-07-28 16:00:00 32.8 6 Oeste 15 Sudoeste 0 -- -- 45
2017-07-28 15:00:00 32.5 9 Oeste 15 Oeste 0 -- -- 47
2017-07-28 14:00:00 30.7 9 Sudoeste 17 Oeste 0 -- -- 48
2017-07-28 13:00:00 29.7 8 Oeste 21 Sudoeste 0 -- -- 54
2017-07-28 12:00:00 29.3 6 Oeste 13 Oeste 0 -- -- 56
2017-07-28 11:00:00 27.7 6 Oeste 13 Oeste 0 -- -- 56
2017-07-28 10:00:00 25.9 7 Sudoeste 12 Sudoeste 0 -- -- 66
2017-07-28 09:00:00 22.9 0 Calma 8 Este 0 -- -- 72
2017-07-28 08:00:00 22 6 Este 17 Sudoeste 0 -- -- 71
2017-07-28 07:00:00 22.6 13 Sudoeste 21 Sudoeste 0 -- -- 64
2017-07-28 06:00:00 20.8 0 Calma 11 Nordeste 0 -- -- 74
2017-07-28 05:00:00 21.7 4 Este 8 Este 0 -- -- 73
2017-07-28 04:00:00 21.5 2 Nordeste 9 Este 0 -- -- 77
2017-07-28 03:00:00 21.6 3 Sudeste 5 Sudeste 0 -- -- 82
2017-07-28 02:00:00 21.4 3 Sudeste 7 Sur 0 -- -- 81
2017-07-28 01:00:00 21.6 0 Calma -- -- 0 -- -- 82
2017-07-28 00:00:00 22 0 Calma -- -- 0 -- -- 82
2017-07-27 23:00:00 22.4 0 Calma 8 Sur 0 -- -- 82
2017-07-27 22:00:00 23 0 Calma 5 Oeste 0 -- -- 82
2017-07-27 21:00:00 24.7 0 Calma 11 Sudoeste 0 -- -- 72
2017-07-27 20:00:00 27.2 4 Oeste 13 Sudoeste 0 -- -- 63
2017-07-27 19:00:00 28.5 7 Sudoeste 14 Sur 0 -- -- 61
2017-07-27 18:00:00 28.9 6 Oeste 13 Sudoeste 0 -- -- 59
2017-07-27 17:00:00 28.9 6 Oeste 18 Sudoeste 0 -- -- 60
2017-07-27 16:00:00 27.9 10 Sudoeste 26 Sudoeste 0 -- -- 63
2017-07-27 15:00:00 28.6 17 Oeste 28 Sudoeste 0 -- -- 58
2017-07-27 14:00:00 29.6 8 Sudoeste 17 Sudoeste 0 -- -- 54
2017-07-27 13:00:00 28.4 8 Sudoeste 17 Sudoeste 0 -- -- 58
2017-07-27 12:00:00 27.3 7 Sudoeste 17 Sudoeste 0 -- -- 61
2017-07-27 11:00:00 27.1 5 Sudoeste 12 Sudoeste 0 -- -- 60
2017-07-27 10:00:00 23.8 2 Oeste 10 Sudoeste 0 -- -- 74
2017-07-27 09:00:00 21.3 2 Noroeste 6 Este 0 -- -- 86
2017-07-27 08:00:00 19.8 2 Este 9 Este 0 -- -- 90
2017-07-27 07:00:00 19.3 4 Nordeste 8 Nordeste 0 -- -- 88
2017-07-27 06:00:00 19.4 0 Calma 5 Sudoeste 0 -- -- 91
2017-07-27 05:00:00 19.8 0 Calma 3 Este 0 -- -- 88
2017-07-27 04:00:00 20.3 0 Calma 4 Norte 0 -- -- 87
2017-07-27 03:00:00 20.1 0 Calma 4 Sudoeste 0 -- -- 83
2017-07-27 02:00:00 20.9 0 Calma 3 Sudeste 0 -- -- 85
2017-07-27 01:00:00 21.1 2 Sur 5 Sur 0 -- -- 85
2017-07-27 00:00:00 21.5 0 Calma 3 Norte 0 -- -- 80
2017-07-26 23:00:00 22 0 Calma 5 Sudeste 0 -- -- 82
2017-07-26 22:00:00 22.5 0 Calma 5 Sudoeste 0 -- -- 79
2017-07-26 21:00:00 23.6 2 Oeste 9 Sudoeste 0 -- -- 74
2017-07-26 20:00:00 25.5 5 Oeste 12 Sudoeste 0 -- -- 66
2017-07-26 19:00:00 26.8 6 Oeste 14 Oeste 0 -- -- 60
2017-07-26 18:00:00 28.8 8 Sudoeste 23 Sudoeste 0 -- -- 53
2017-07-26 17:00:00 29.5 7 Oeste 23 Oeste 0 -- -- 52
2017-07-26 16:00:00 27.4 12 Sudoeste 27 Sudoeste 0 -- -- 61
2017-07-26 15:00:00 27.4 10 Oeste 22 Sudoeste 0 -- -- 60
2017-07-26 14:00:00 26.6 10 Sudoeste 20 Sudoeste 0 -- -- 62
2017-07-26 13:00:00 26.8 8 Sudoeste 19 Sudoeste 0 -- -- 61
2017-07-26 12:00:00 26.2 8 Sudoeste 17 Sudoeste 0 -- -- 64
2017-07-26 11:00:00 25 4 Oeste 14 Sur 0 -- -- 68
2017-07-26 10:00:00 23.7 3 Sudoeste 10 Oeste 0 -- -- 73
2017-07-26 09:00:00 21.8 3 Sudeste 6 Sudoeste 0 -- -- 81
2017-07-26 08:00:00 20.7 0 Calma 8 Este 0 -- -- 84
2017-07-26 07:00:00 20.8 0 Calma 5 Este 0 -- -- 86
2017-07-26 06:00:00 20.9 3 Este 5 Este 0 -- -- 86
2017-07-26 05:00:00 21.1 2 Norte 5 Nordeste 0 -- -- 85
2017-07-26 04:00:00 21.4 3 Norte 13 Norte 0 -- -- 84
2017-07-26 03:00:00 21.6 5 Noroeste 12 Sudoeste 0 -- -- 85
2017-07-26 02:00:00 21.7 2 Este 8 Sur 0 -- -- 82
2017-07-26 01:00:00 22 3 Noroeste 11 Oeste 0 -- -- 82
2017-07-26 00:00:00 22.1 3 Sur 11 Oeste 0 -- -- 82
2017-07-25 23:00:00 22.3 4 Oeste 14 Oeste 0 -- -- 81
2017-07-25 22:00:00 22.6 4 Oeste 14 Sudoeste 0 -- -- 80
2017-07-25 21:00:00 23.5 4 Sudoeste 19 Sudoeste 0 -- -- 77
2017-07-25 20:00:00 25.4 7 Sudoeste 20 Oeste 0 -- -- 68
2017-07-25 19:00:00 27 6 Oeste 21 Sudoeste 0 -- -- 62
2017-07-25 18:00:00 27.1 9 Oeste 21 Sudoeste 0 -- -- 61
2017-07-25 17:00:00 26.9 11 Oeste 24 Sudoeste 0 -- -- 62
2017-07-25 16:00:00 27.5 10 Sudoeste 25 Sudoeste 0 -- -- 58
2017-07-25 15:00:00 28.1 12 Sudoeste 21 Oeste 0 -- -- 57
2017-07-25 14:00:00 26.9 11 Sudoeste 24 Sudoeste 0 -- -- 63
2017-07-25 13:00:00 26.4 9 Sudoeste 20 Sudoeste 0 -- -- 62
2017-07-25 12:00:00 25.4 10 Sudoeste 19 Sudoeste 0 -- -- 66
2017-07-25 11:00:00 24.9 8 Oeste 21 Oeste 0 -- -- 69
2017-07-25 10:00:00 23.9 10 Oeste 21 Sudoeste 0 -- -- 73
2017-07-25 09:00:00 22.1 3 Sudoeste 11 Sudoeste 0 -- -- 81
2017-07-25 08:00:00 21 4 Nordeste 8 Nordeste 0 -- -- 85
2017-07-25 07:00:00 20.9 0 Calma 10 Sudoeste 0 -- -- 85
2017-07-25 06:00:00 20.9 5 Nordeste 11 Sudeste 0 -- -- 81
2017-07-25 05:00:00 21.2 0 Calma 7 Nordeste 0 -- -- 81
2017-07-25 04:00:00 21.5 2 Sudoeste 8 Noroeste 0 -- -- 79
2017-07-25 03:00:00 22.1 3 Oeste 17 Nordeste 0 -- -- 80
2017-07-25 02:00:00 22.3 6 Nordeste 12 Nordeste 0 -- -- 77
2017-07-25 01:00:00 22.4 3 Oeste 13 Sudeste 0 -- -- 77
2017-07-25 00:00:00 22.3 5 Este 13 Nordeste 0 -- -- 79
2017-07-24 23:00:00 22.6 6 Oeste 23 Sudoeste 0 -- -- 77
2017-07-24 22:00:00 23.1 4 Oeste 10 Sudoeste 0 -- -- 73
2017-07-24 21:00:00 23.9 6 Sudoeste 16 Oeste 0 -- -- 68
2017-07-24 20:00:00 25.2 8 Oeste 22 Sudoeste 0 -- -- 66
2017-07-24 19:00:00 27 10 Sudoeste 17 Sudoeste 0 -- -- 57
2017-07-24 18:00:00 27.8 7 Sudoeste 18 Oeste 0 -- -- 53
2017-07-24 17:00:00 27.7 8 Oeste 18 Sudoeste 0 -- -- 56
2017-07-24 16:00:00 26.9 12 Sudoeste 27 Sudoeste 0 -- -- 59
2017-07-24 15:00:00 26.7 17 Sudoeste 27 Sudoeste 0 -- -- 60
2017-07-24 14:00:00 26.5 9 Sudoeste 26 Sudoeste 0 -- -- 56
2017-07-24 13:00:00 26.2 9 Sudoeste 20 Sudoeste 0 -- -- 59
2017-07-24 12:00:00 25.9 8 Sudoeste 15 Oeste 0 -- -- 59
2017-07-24 11:00:00 25.4 4 Sudoeste 12 Oeste 0 -- -- 60
2017-07-24 10:00:00 23.8 4 Oeste 8 Oeste 0 -- -- 67
2017-07-24 09:00:00 21.7 0 Calma 6 Nordeste 0 -- -- 75
2017-07-24 08:00:00 20.5 0 Calma 4 Sudeste 0 -- -- 79
2017-07-24 07:00:00 20.1 0 Calma 4 Este 0 -- -- 78
2017-07-24 06:00:00 19.4 0 Calma -- -- 0 -- -- 80
2017-07-24 05:00:00 20 0 Calma 5 Nordeste 0 -- -- 77
2017-07-24 04:00:00 21.1 2 Este 5 Sudoeste 0 -- -- 77
2017-07-24 03:00:00 21.3 3 Sur 9 Sudeste 0 -- -- 75
2017-07-24 02:00:00 21.2 2 Noroeste 13 Noroeste 0 -- -- 77
2017-07-24 01:00:00 21.5 5 Noroeste 14 Norte 0 -- -- 76
2017-07-24 00:00:00 21.6 4 Norte 9 Oeste 0 -- -- 77
2017-07-23 23:00:00 21.6 0 Calma 6 Norte 0 -- -- 75
2017-07-23 22:00:00 22.1 0 Calma 6 Norte 0 -- -- 74
2017-07-23 21:00:00 23.2 2 Oeste 14 Sudoeste 0 -- -- 67
2017-07-23 20:00:00 25.1 9 Sudoeste 17 Sudoeste 0 -- -- 61
2017-07-23 19:00:00 25.9 10 Sudoeste 21 Sudoeste 0 -- -- 58
2017-07-23 18:00:00 26.4 13 Sudoeste 23 Oeste 0 -- -- 56
2017-07-23 17:00:00 26.9 12 Sudoeste 22 Sudoeste 0 -- -- 52
2017-07-23 16:00:00 26.8 10 Sudoeste 23 Sudoeste 0 -- -- 52
2017-07-23 15:00:00 26.6 10 Sudoeste 21 Oeste 0 -- -- 52
2017-07-23 14:00:00 26.2 10 Sudoeste 20 Sudoeste 0 -- -- 52
2017-07-23 13:00:00 25.7 9 Sudoeste 20 Sudoeste 0 -- -- 55
2017-07-23 12:00:00 25.2 10 Oeste 19 Oeste 0 -- -- 57
2017-07-23 11:00:00 25.1 7 Oeste 13 Noroeste 0 -- -- 57
2017-07-23 10:00:00 24 5 Noroeste 10 Oeste 0 -- -- 60
2017-07-23 09:00:00 21.9 3 Norte 6 Norte 0 -- -- 66
2017-07-23 08:00:00 19.7 5 Norte 8 Nordeste 0 -- -- 75
2017-07-23 07:00:00 19.5 6 Este 10 Este 0 -- -- 74
2017-07-23 06:00:00 19.3 6 Este 10 Este 0 -- -- 75
2017-07-23 05:00:00 19.8 3 Nordeste 8 Norte 0 -- -- 74
2017-07-23 04:00:00 19.6 4 Nordeste 9 Nordeste 0 -- -- 75
2017-07-23 03:00:00 19.6 0 Calma 8 Nordeste 0 -- -- 78
2017-07-23 02:00:00 20.2 3 Norte 7 Norte 0 -- -- 76
2017-07-23 01:00:00 20.8 5 Norte 7 Norte 0 -- -- 73
2017-07-23 00:00:00 21.4 0 Calma 11 Noroeste 0 -- -- 71
2017-07-22 23:00:00 21.7 4 Norte 13 Norte 0 -- -- 72
2017-07-22 22:00:00 22 5 Noroeste 12 Noroeste 0 -- -- 69
2017-07-22 21:00:00 22.9 3 Norte 9 Oeste 0 -- -- 60
2017-07-22 20:00:00 23.8 3 Oeste 13 Sudoeste 0 -- -- 59
2017-07-22 19:00:00 24.2 9 Sudoeste 20 Oeste 0 -- -- 57
2017-07-22 18:00:00 24.8 10 Sudoeste 18 Sudoeste 0 -- -- 55
2017-07-22 17:00:00 25.3 11 Sudoeste 19 Oeste 0 -- -- 52
2017-07-22 16:00:00 25.8 9 Sudoeste 19 Sudoeste 0 -- -- 54
2017-07-22 15:00:00 25.2 8 Sudoeste 20 Sudoeste 0 -- -- 54
2017-07-22 14:00:00 25.5 9 Oeste 19 Oeste 0 -- -- 55
2017-07-22 13:00:00 25.4 9 Oeste 17 Sudoeste 0 -- -- 55
2017-07-22 12:00:00 25.3 8 Oeste 14 Noroeste 0 -- -- 53
2017-07-22 11:00:00 23.9 5 Noroeste 13 Sudoeste 0 -- -- 56
2017-07-22 10:00:00 23.1 3 Oeste 10 Sudoeste 0 -- -- 57
2017-07-22 09:00:00 22.3 0 Calma 6 Sur 0 -- -- 63
2017-07-22 08:00:00 21.6 0 Calma 9 Noroeste 0 -- -- 67
2017-07-22 07:00:00 21.6 3 Noroeste 8 Norte 0 -- -- 67
2017-07-22 06:00:00 21.6 5 Sudeste 9 Sudeste 0 -- -- 63
2017-07-22 05:00:00 21.7 4 Nordeste 8 Norte 0 -- -- 64
2017-07-22 04:00:00 21.7 4 Noroeste 9 Norte 0 -- -- 66
2017-07-22 03:00:00 21.7 0 Calma 4 Noroeste 0 -- -- 66
2017-07-22 02:00:00 21.9 0 Calma 14 Oeste 0 -- -- 67
2017-07-22 01:00:00 22.1 5 Noroeste 15 Norte 0 -- -- 65
2017-07-22 00:00:00 22.2 2 Oeste 12 Norte 0 -- -- 68